This is the latest recevied weather packets stored in our database for station/object YO6RK-13. If no packets are shown the sender has not sent any weather packets the latest 10 day(s).
| Time | Temp. | Humidity | Pressure | Rain* | Wind** | Luminosity | Snow |
|---|---|---|---|---|---|---|---|
| 1777685133 | 5.56° C | 76% | 1019.8 hPa | 0 mm | - | - | - |
| 1777682415 | 5.56° C | 76% | 1020.2 hPa | 0 mm | - | - | - |
| 1777681839 | 5.56° C | 74% | 1020.2 hPa | 0 mm | - | - | - |
| 1777680921 | 5.56° C | 75% | 1020.3 hPa | 0 mm | - | - | - |
| 1777680620 | 5.56° C | 75% | 1020.3 hPa | 0 mm | - | - | - |
| 1777673111 | 6.11° C | 73% | 1020.6 hPa | 0 mm | - | - | - |
| 1777672534 | 5.56° C | 76% | 1020.9 hPa | 0 mm | - | - | - |
| 1777672233 | 5.56° C | 75% | 1020.9 hPa | 0 mm | - | - | - |
| 1777670411 | 6.11° C | 70% | 1020.9 hPa | 0 mm | - | - | - |
| 1777670135 | 6.11° C | 67% | 1020.8 hPa | 0 mm | - | - | - |
| 1777669819 | 6.11° C | 65% | 1020.7 hPa | 0 mm | - | - | - |
| 1777668933 | 6.67° C | 61% | 1020.7 hPa | 0 mm | - | - | - |
| 1777664419 | 7.78° C | 48% | 1020.8 hPa | 0 mm | - | - | - |
| 1777661111 | 8.33° C | 46% | 1020.7 hPa | 0 mm | - | - | - |
| 1777660835 | 8.89° C | 45% | 1020.6 hPa | 0 mm | - | - | - |
| 1777660218 | 8.89° C | 45% | 1020.8 hPa | 0 mm | - | - | - |
| 1777659013 | 8.89° C | 48% | 1020.7 hPa | 0 mm | - | - | - |
| 1777658118 | 9.44° C | 48% | 1020.5 hPa | 0 mm | - | - | - |
| 1777657831 | 9.44° C | 47% | 1020.4 hPa | 0 mm | - | - | - |
| 1777656920 | 9.44° C | 46% | 1020.2 hPa | 0 mm | - | - | - |
| 1777656028 | 10° C | 44% | 1020.3 hPa | 0 mm | - | - | - |
| 1777655426 | 10° C | 44% | 1020.2 hPa | 0 mm | - | - | - |
| 1777654815 | 10° C | 44% | 1020.2 hPa | 0 mm | - | - | - |
| 1777650035 | 11.67° C | 38% | 1019.8 hPa | 0 mm | - | - | - |
| 1777649725 | 11.67° C | 37% | 1019.8 hPa | 0 mm | - | - | - |
* Rain latest hour (hover to see other rain measurements)
** Current wind speed in m/s (hover to see current wind gust speed)